Time;durP1;ratioP1;P1;durP2;ratioP2;P2;SDS_P1;SDS_P2;PMS_P1;PMS_P2;Temp;Humidity;BMP_temperature;BMP_pressure;BME280_temperature;BME280_humidity;BME280_pressure;Samples;Min_cycle;Max_cycle;Signal;HPM_P1;HPM_P2
2022/11/16 00:02:05;;;;;;;10.40;8.47;;;;;;;10.23;100.00;96892.16;5076675;28;20223;-70
2022/11/16 00:04:32;;;;;;;11.27;8.53;;;;;;;10.24;100.00;96892.97;5076528;28;20220;-68
2022/11/16 00:07:01;;;;;;;10.30;8.30;;;;;;;10.23;100.00;96896.59;5076420;28;20284;-70
2022/11/16 00:09:28;;;;;;;11.87;8.73;;;;;;;10.23;100.00;96896.59;5076422;28;20332;-69
2022/11/16 00:11:57;;;;;;;9.63;8.33;;;;;;;10.21;100.00;96894.09;5076585;28;20217;-69
2022/11/16 00:14:28;;;;;;;11.60;8.63;;;;;;;10.21;100.00;96894.09;5076283;28;20258;-70
2022/11/16 00:16:55;;;;;;;11.67;9.23;;;;;;;10.23;100.00;96901.88;5076270;28;20277;-69
2022/11/16 00:19:22;;;;;;;10.13;8.10;;;;;;;10.21;100.00;96906.47;5076235;28;20586;-69
2022/11/16 00:21:49;;;;;;;11.73;9.03;;;;;;;10.24;100.00;96898.25;5076361;28;20678;-69
2022/11/16 00:24:18;;;;;;;11.40;8.60;;;;;;;10.24;100.00;96899.09;5075034;28;20216;-69
2022/11/16 00:26:45;;;;;;;11.63;8.90;;;;;;;10.23;100.00;96899.22;5076238;28;20575;-69
2022/11/16 00:29:14;;;;;;;11.77;8.47;;;;;;;10.21;100.00;96903.81;5076384;28;20261;-70
2022/11/16 00:31:44;;;;;;;10.47;8.77;;;;;;;10.21;100.00;96914.38;5079321;28;20542;-69
2022/11/16 00:34:11;;;;;;;10.90;9.27;;;;;;;10.20;100.00;96907.41;5079816;28;20329;-70
2022/11/16 00:36:38;;;;;;;12.87;9.20;;;;;;;10.18;100.00;96901.44;5079805;28;20250;-69
2022/11/16 00:39:05;;;;;;;11.60;9.30;;;;;;;10.17;100.00;96907.69;5079899;28;20257;-69
2022/11/16 00:41:31;;;;;;;12.80;8.80;;;;;;;10.15;100.00;96894.63;5079813;28;20590;-69
2022/11/16 00:43:58;;;;;;;12.27;9.20;;;;;;;10.12;100.00;96883.50;5079693;28;20592;-69
2022/11/16 00:46:24;;;;;;;13.57;9.17;;;;;;;10.12;100.00;96891.41;5079563;28;20271;-69
2022/11/16 00:48:53;;;;;;;12.07;9.80;;;;;;;10.12;100.00;96883.50;5078084;28;20251;-69
2022/11/16 00:51:19;;;;;;;11.87;9.27;;;;;;;10.09;100.00;96884.59;5079497;28;20257;-69
2022/11/16 00:53:46;;;;;;;11.93;9.67;;;;;;;10.07;100.00;96883.03;5079674;28;20260;-69
2022/11/16 00:56:13;;;;;;;12.43;9.20;;;;;;;10.07;100.00;96875.13;5079387;28;20687;-68
2022/11/16 00:58:39;;;;;;;13.97;10.13;;;;;;;10.04;100.00;96878.03;5079394;28;20636;-69
2022/11/16 01:01:08;;;;;;;12.40;9.57;;;;;;;10.03;100.00;96877.19;5079559;28;20256;-68
2022/11/16 01:03:35;;;;;;;11.37;9.03;;;;;;;10.00;100.00;96884.53;5079522;28;20653;-69
2022/11/16 01:06:06;;;;;;;10.90;8.57;;;;;;;10.01;100.00;96871.19;5079282;28;20239;-69
2022/11/16 01:08:33;;;;;;;9.60;7.77;;;;;;;10.02;100.00;96866.72;5079292;28;20253;-69
2022/11/16 01:12:07;;;;;;;10.53;8.00;;;;;;;10.01;100.00;96867.72;5079149;28;20251;-70
2022/11/16 01:13:45;;;;;;;11.20;9.20;;;;;;;9.99;100.00;96861.75;5078879;28;20643;-70
2022/11/16 01:16:15;;;;;;;11.93;8.70;;;;;;;9.99;100.00;96862.59;5077452;28;20292;-70
2022/11/16 01:18:41;;;;;;;11.63;8.70;;;;;;;9.98;100.00;96842.41;5079057;28;20217;-71
2022/11/16 01:21:10;;;;;;;11.63;9.07;;;;;;;9.96;100.00;96848.78;5078850;28;20261;-71
2022/11/16 01:23:36;;;;;;;12.53;8.83;;;;;;;9.94;100.00;96854.22;5078875;28;20255;-70
2022/11/16 01:26:03;;;;;;;10.57;7.93;;;;;;;9.94;100.00;96858.66;5078784;28;20270;-71
2022/11/16 01:28:31;;;;;;;10.87;7.53;;;;;;;9.94;100.00;96856.00;5078898;28;20220;-71
2022/11/16 01:30:57;;;;;;;9.60;7.37;;;;;;;9.92;100.00;96855.31;5078876;28;20525;-69
2022/11/16 01:33:24;;;;;;;9.23;6.80;;;;;;;9.94;100.00;96870.06;5078996;28;20592;-70
2022/11/16 01:35:51;;;;;;;8.23;6.43;;;;;;;9.94;100.00;96854.22;5078721;28;20379;-69
2022/11/16 01:38:19;;;;;;;8.07;6.03;;;;;;;9.95;100.00;96850.63;5078855;28;20277;-69
2022/11/16 01:40:46;;;;;;;6.87;6.10;;;;;;;9.95;100.00;96847.13;5076876;28;20259;-69
2022/11/16 01:43:17;;;;;;;8.10;6.30;;;;;;;9.90;100.00;96847.53;5077475;28;20253;-70
2022/11/16 01:45:44;;;;;;;6.77;5.87;;;;;;;9.93;100.00;96847.28;5078386;28;20226;-69
2022/11/16 01:48:14;;;;;;;6.73;5.57;;;;;;;9.92;100.00;96852.69;5078451;28;20247;-69
2022/11/16 01:50:42;;;;;;;7.63;6.23;;;;;;;9.92;100.00;96842.94;5078541;28;20253;-70
2022/11/16 01:53:11;;;;;;;8.10;6.70;;;;;;;9.86;100.00;96846.13;5078444;28;20251;-69
2022/11/16 01:55:42;;;;;;;9.70;6.37;;;;;;;9.85;100.00;96833.91;5078269;28;20251;-70
2022/11/16 01:58:12;;;;;;;9.97;6.93;;;;;;;9.84;100.00;96836.69;5078329;28;20523;-71
2022/11/16 02:00:38;;;;;;;8.30;6.57;;;;;;;9.81;100.00;96836.94;5078235;28;20249;-69
2022/11/16 02:03:05;;;;;;;8.67;6.20;;;;;;;9.79;100.00;96828.34;5078337;28;20251;-69
2022/11/16 02:05:43;;;;;;;9.83;6.83;;;;;;;9.76;100.00;96833.84;5077057;28;20303;-69
2022/11/16 02:11:27;;;;;;;8.73;6.97;;;;;;;9.74;100.00;96831.34;5078204;28;20285;-70
2022/11/16 02:14:08;;;;;;;8.80;7.40;;;;;;;9.74;100.00;96830.53;5077967;28;20249;-69
2022/11/16 02:16:47;;;;;;;10.53;7.30;;;;;;;9.72;100.00;96827.19;5077917;28;20296;-69
2022/11/16 02:19:36;;;;;;;7.90;6.80;;;;;;;9.74;100.00;96822.63;5077817;28;20307;-70
2022/11/16 02:22:14;;;;;;;11.80;7.77;;;;;;;9.72;100.00;96835.13;5077848;28;20253;-70
2022/11/16 02:24:45;;;;;;;8.10;7.20;;;;;;;9.73;100.00;96834.13;5077651;28;20256;-70
2022/11/16 02:27:44;;;;;;;9.73;7.03;;;;;;;9.73;100.00;96839.41;5077605;28;20269;-69
2022/11/16 02:30:13;;;;;;;9.33;7.80;;;;;;;9.69;100.00;96825.66;5051074;28;20260;-70
2022/11/16 02:32:46;;;;;;;8.50;7.60;;;;;;;9.69;100.00;96838.00;5075816;28;20255;-70
2022/11/16 02:35:16;;;;;;;8.47;7.63;;;;;;;9.70;100.00;96818.56;5077565;28;20253;-70
2022/11/16 02:37:48;;;;;;;10.87;7.73;;;;;;;9.73;100.00;96836.78;5077550;28;20221;-71
2022/11/16 02:40:17;;;;;;;10.47;8.00;;;;;;;9.73;100.00;96834.94;5077557;28;20262;-70
2022/11/16 02:42:49;;;;;;;8.47;7.43;;;;;;;9.72;100.00;96824.56;5077624;28;20254;-70
2022/11/16 02:45:23;;;;;;;10.23;7.70;;;;;;;9.72;100.00;96824.56;5077351;28;20264;-70
2022/11/16 02:47:53;;;;;;;9.03;7.93;;;;;;;9.75;100.00;96824.28;5077244;28;20316;-71
2022/11/16 02:50:22;;;;;;;8.87;7.50;;;;;;;9.76;100.00;96823.31;5077666;28;20259;-71
2022/11/16 02:52:49;;;;;;;9.53;7.63;;;;;;;9.76;100.00;96821.50;5077208;28;20278;-71
2022/11/16 02:55:15;;;;;;;9.57;7.93;;;;;;;9.74;100.00;96826.06;5077078;28;20258;-70
2022/11/16 02:57:48;;;;;;;9.93;8.13;;;;;;;9.75;100.00;96819.00;5075300;28;20608;-71
2022/11/16 03:00:21;;;;;;;11.83;8.63;;;;;;;9.77;100.00;96819.69;5077105;28;20258;-71
2022/11/16 03:02:56;;;;;;;9.77;8.07;;;;;;;9.80;100.00;96825.53;5077230;28;20248;-70
2022/11/16 03:05:31;;;;;;;9.37;7.80;;;;;;;9.80;100.00;96824.72;5077203;28;20278;-71
2022/11/16 03:08:06;;;;;;;8.53;7.53;;;;;;;9.78;100.00;96818.75;5077272;28;20540;-71
2022/11/16 03:13:24;;;;;;;9.73;8.13;;;;;;;9.78;100.00;96826.66;5077111;28;20684;-70
2022/11/16 03:15:56;;;;;;;10.77;8.27;;;;;;;9.78;100.00;96816.13;5077129;28;20248;-70
2022/11/16 03:18:27;;;;;;;10.13;8.10;;;;;;;9.80;100.00;96822.09;5077032;28;20215;-70
2022/11/16 03:21:02;;;;;;;9.63;8.23;;;;;;;9.77;100.00;96817.06;5076881;28;20217;-70
2022/11/16 03:23:29;;;;;;;11.17;8.43;;;;;;;9.76;100.00;96812.75;5075287;28;20569;-70
2022/11/16 03:25:58;;;;;;;10.33;8.20;;;;;;;9.75;100.00;96804.03;5076860;28;20248;-70
2022/11/16 03:28:28;;;;;;;9.93;8.33;;;;;;;9.74;100.00;96798.88;5076909;28;20699;-72
2022/11/16 03:31:01;;;;;;;8.87;7.40;;;;;;;9.73;100.00;96799.84;5076835;28;20250;-70
2022/11/16 03:33:31;;;;;;;13.63;9.70;;;;;;;9.69;100.00;96790.50;5076806;28;20339;-70
2022/11/16 03:36:01;;;;;;;10.70;7.70;;;;;;;9.72;100.00;96798.19;5076704;28;20260;-70
2022/11/16 03:38:28;;;;;;;9.80;8.00;;;;;;;9.73;100.00;96791.94;5076614;28;20253;-70
2022/11/16 03:40:59;;;;;;;9.80;7.60;;;;;;;9.71;100.00;96788.56;5076767;28;20251;-70
2022/11/16 03:43:27;;;;;;;8.93;7.50;;;;;;;9.70;100.00;96786.91;5076776;28;20212;-70
2022/11/16 03:45:54;;;;;;;9.40;7.70;;;;;;;9.68;100.00;96783.56;5076784;28;20253;-70
2022/11/16 03:48:23;;;;;;;12.67;8.33;;;;;;;9.69;100.00;96788.72;5076614;28;20272;-71
2022/11/16 03:50:49;;;;;;;8.83;7.60;;;;;;;9.68;100.00;96788.84;5075113;28;21283;-71
2022/11/16 03:53:16;;;;;;;9.53;8.20;;;;;;;9.66;100.00;96786.34;5076537;28;20676;-70
2022/11/16 03:55:43;;;;;;;9.73;7.47;;;;;;;9.68;100.00;96794.13;5076402;28;20679;-71
2022/11/16 03:58:10;;;;;;;8.53;7.57;;;;;;;9.71;100.00;96804.41;5076482;28;20524;-71
2022/11/16 04:00:36;;;;;;;9.63;7.77;;;;;;;9.75;100.00;96805.81;5076434;28;20264;-71
2022/11/16 04:03:03;;;;;;;9.00;7.30;;;;;;;9.74;100.00;96814.69;5076333;28;20257;-71
2022/11/16 04:24:52;;;;;;;10.57;7.90;;;;;;;9.96;100.00;96847.00;5080298;28;20278;-71
2022/11/16 04:30:09;;;;;;;9.13;7.27;;;;;;;9.98;100.00;96854.78;5079949;28;20234;-72
2022/11/16 04:38:08;;;;;;;9.93;7.77;;;;;;;9.98;100.00;96841.59;5062653;28;20630;-70
2022/11/16 04:40:34;;;;;;;8.77;6.53;;;;;;;9.98;100.00;96846.88;5078406;28;20256;-70
2022/11/16 04:43:03;;;;;;;7.97;6.47;;;;;;;9.96;100.00;96846.16;5079689;28;20255;-71
2022/11/16 04:48:17;;;;;;;7.83;6.87;;;;;;;10.00;100.00;96853.69;5079631;28;20303;-72
2022/11/16 04:50:44;;;;;;;8.53;7.03;;;;;;;9.99;100.00;96852.03;5079495;28;20264;-71
2022/11/16 04:53:12;;;;;;;8.67;6.60;;;;;;;10.01;100.00;96846.59;5079785;28;20259;-70
2022/11/16 04:55:39;;;;;;;7.80;6.93;;;;;;;10.02;100.00;96842.97;5079316;28;20269;-70
2022/11/16 04:58:06;;;;;;;7.57;6.50;;;;;;;10.01;100.00;96849.22;5079665;28;20252;-70
2022/11/16 05:00:32;;;;;;;7.60;6.20;;;;;;;10.01;100.00;96838.69;5079417;28;20256;-70
2022/11/16 05:02:59;;;;;;;6.83;6.13;;;;;;;10.01;100.00;96836.03;5079353;28;20256;-71
2022/11/16 05:05:26;;;;;;;6.30;5.40;;;;;;;9.99;100.00;96836.19;5079426;28;20255;-72
2022/11/16 05:07:52;;;;;;;6.77;5.83;;;;;;;9.96;100.00;96835.59;5077692;28;20265;-71
2022/11/16 05:10:20;;;;;;;7.40;6.20;;;;;;;9.95;100.00;96826.88;5079372;28;20249;-70
2022/11/16 05:12:47;;;;;;;8.70;6.97;;;;;;;9.93;100.00;96833.25;5079427;28;20252;-70
2022/11/16 05:15:16;;;;;;;7.60;6.47;;;;;;;9.92;100.00;96828.94;5079246;28;20698;-71
2022/11/16 05:17:43;;;;;;;6.73;6.00;;;;;;;9.94;100.00;96833.13;5078992;28;20218;-71
2022/11/16 05:22:55;;;;;;;8.23;6.27;;;;;;;9.95;100.00;96828.66;5079332;28;20211;-70
2022/11/16 05:25:22;;;;;;;6.67;5.97;;;;;;;9.94;100.00;96837.53;5078948;28;20663;-70
2022/11/16 05:27:49;;;;;;;6.57;5.63;;;;;;;9.95;100.00;96839.22;5078831;28;20513;-70
2022/11/16 05:30:16;;;;;;;6.87;6.10;;;;;;;9.96;100.00;96840.88;5078764;28;20258;-71
2022/11/16 05:32:44;;;;;;;6.97;6.20;;;;;;;9.99;100.00;96845.91;5077107;28;20258;-71
2022/11/16 05:35:10;;;;;;;6.47;5.67;;;;;;;10.00;100.00;96847.56;5079009;28;20258;-71
2022/11/16 05:37:37;;;;;;;8.13;5.70;;;;;;;9.99;100.00;96845.91;5078714;28;20251;-72
2022/11/16 05:40:04;;;;;;;6.53;5.47;;;;;;;9.99;100.00;96845.91;5078784;28;20259;-71
2022/11/16 05:42:32;;;;;;;6.33;5.23;;;;;;;9.97;100.00;96848.66;5078487;28;20252;-71
2022/11/16 05:44:59;;;;;;;5.83;5.10;;;;;;;9.99;100.00;96856.47;5078701;28;20256;-71
2022/11/16 05:47:26;;;;;;;5.70;5.10;;;;;;;9.97;100.00;96853.94;5078357;28;20325;-70
2022/11/16 05:49:52;;;;;;;5.87;5.10;;;;;;;9.96;100.00;96851.44;5078531;28;20264;-70
2022/11/16 05:52:19;;;;;;;7.80;5.57;;;;;;;9.91;100.00;96851.03;5078384;28;20257;-70
2022/11/16 05:54:45;;;;;;;6.10;5.50;;;;;;;9.88;100.00;96853.91;5078592;28;20637;-71
2022/11/16 05:57:12;;;;;;;7.07;5.73;;;;;;;9.87;100.00;96846.97;5078737;28;20275;-71
2022/11/16 05:59:40;;;;;;;6.83;5.87;;;;;;;9.82;100.00;96842.09;5076771;28;20258;-71
2022/11/16 06:02:07;;;;;;;7.63;5.90;;;;;;;9.79;100.00;96852.06;5078237;28;20264;-72
2022/11/16 06:04:33;;;;;;;6.53;5.27;;;;;;;9.71;100.00;96851.88;5078186;28;20254;-72
2022/11/16 06:07:00;;;;;;;6.93;5.50;;;;;;;9.68;100.00;96847.69;5078049;28;20608;-70
2022/11/16 06:09:26;;;;;;;6.43;5.67;;;;;;;9.64;100.00;96848.09;5078059;28;20320;-72
2022/11/16 06:11:53;;;;;;;5.47;4.87;;;;;;;9.55;100.00;96856.81;5078060;28;20277;-72
2022/11/16 06:14:20;;;;;;;6.00;5.23;;;;;;;9.50;100.00;96845.81;5077969;28;20251;-71
2022/11/16 06:16:48;;;;;;;7.13;5.80;;;;;;;9.50;100.00;96849.31;5077851;28;20262;-71
2022/11/16 06:19:14;;;;;;;6.93;5.50;;;;;;;9.52;100.00;96847.34;5077780;28;20549;-71
2022/11/16 06:21:41;;;;;;;7.33;5.43;;;;;;;9.59;100.00;96847.66;5077768;28;20257;-71
2022/11/16 06:24:08;;;;;;;5.87;5.27;;;;;;;9.65;100.00;96853.25;5076130;28;20258;-71
2022/11/16 06:26:35;;;;;;;6.77;5.33;;;;;;;9.70;100.00;96855.50;5077954;28;20532;-71
2022/11/16 06:29:02;;;;;;;6.97;5.87;;;;;;;9.77;100.00;96859.28;5077381;28;20231;-71
2022/11/16 06:31:29;;;;;;;6.33;5.43;;;;;;;9.82;100.00;96867.63;5077558;28;20265;-71
2022/11/16 06:33:57;;;;;;;6.93;5.77;;;;;;;9.85;100.00;96868.19;5077682;28;20261;-71
2022/11/16 06:36:23;;;;;;;7.33;5.30;;;;;;;9.89;100.00;96866.13;5077662;28;20675;-71
2022/11/16 06:38:50;;;;;;;5.87;5.27;;;;;;;9.94;100.00;96874.50;5077546;28;20262;-71
2022/11/16 06:41:17;;;;;;;6.27;5.20;;;;;;;9.95;100.00;96871.72;5077758;28;20215;-72
2022/11/16 06:43:43;;;;;;;6.77;6.03;;;;;;;9.96;100.00;96883.09;5077349;28;20247;-72
2022/11/16 06:46:10;;;;;;;8.13;5.83;;;;;;;9.97;100.00;96884.78;5077491;28;20606;-70
2022/11/16 06:48:37;;;;;;;6.73;5.70;;;;;;;9.97;100.00;96879.53;5077429;28;20271;-71
2022/11/16 06:51:05;;;;;;;6.97;5.17;;;;;;;9.96;100.00;96891.88;5075639;28;20257;-72
2022/11/16 06:53:32;;;;;;;6.00;5.40;;;;;;;9.95;100.00;96897.28;5077329;28;20254;-72
2022/11/16 06:56:01;;;;;;;7.97;6.57;;;;;;;9.90;100.00;96895.03;5077161;28;20553;-72
2022/11/16 06:58:29;;;;;;;7.37;5.90;;;;;;;9.91;100.00;96895.88;5077285;28;20211;-71
2022/11/16 07:00:55;;;;;;;5.87;5.13;;;;;;;9.93;100.00;96899.22;5077288;28;20255;-71
2022/11/16 07:03:22;;;;;;;6.30;5.13;;;;;;;9.89;100.00;96908.34;5077226;28;20250;-70
2022/11/16 07:05:49;;;;;;;5.73;5.13;;;;;;;9.89;100.00;96908.34;5077202;28;20219;-70
2022/11/16 07:08:17;;;;;;;6.77;5.20;;;;;;;9.92;100.00;96908.91;5077080;28;20282;-71
2022/11/16 07:10:43;;;;;;;6.03;4.77;;;;;;;9.93;100.00;96909.78;5077202;28;20253;-71
2022/11/16 07:13:10;;;;;;;5.83;4.60;;;;;;;9.93;100.00;96913.25;5077043;28;20257;-71
2022/11/16 07:15:36;;;;;;;5.57;4.40;;;;;;;9.95;100.00;96913.94;5075349;28;20253;-71
2022/11/16 07:18:04;;;;;;;4.93;4.07;;;;;;;9.96;100.00;96918.25;5077005;28;20251;-72
2022/11/16 07:20:31;;;;;;;6.00;4.53;;;;;;;9.96;100.00;96922.69;5077054;28;20298;-71
2022/11/16 07:23:00;;;;;;;6.83;4.90;;;;;;;9.93;100.00;96925.59;5077163;28;20253;-71
2022/11/16 07:25:28;;;;;;;5.47;4.67;;;;;;;9.95;100.00;96921.03;5077043;28;20327;-70
2022/11/16 07:27:57;;;;;;;5.87;4.57;;;;;;;10.03;100.00;96922.06;5076995;28;20275;-71
2022/11/16 07:30:23;;;;;;;5.93;4.53;;;;;;;10.13;100.00;96924.75;5076991;28;20254;-72
2022/11/16 07:32:50;;;;;;;4.73;4.07;;;;;;;10.14;100.00;96931.69;5077076;28;20225;-71
2022/11/16 07:35:17;;;;;;;6.87;4.07;;;;;;;10.14;100.00;96929.91;5077055;28;20250;-70
2022/11/16 07:37:43;;;;;;;5.57;3.93;;;;;;;10.15;100.00;96936.03;5076963;28;20270;-71
2022/11/16 07:40:11;;;;;;;4.80;3.67;;;;;;;10.15;100.00;96928.13;5077247;28;20248;-71
2022/11/16 07:42:39;;;;;;;4.73;3.87;;;;;;;10.20;100.00;96933.81;5079081;28;20661;-72
2022/11/16 07:45:07;;;;;;;3.80;3.33;;;;;;;10.26;100.00;96938.56;5080983;28;20281;-70
2022/11/16 07:47:36;;;;;;;4.27;3.50;;;;;;;10.28;100.00;96945.38;5080730;28;20245;-72
2022/11/16 07:50:04;;;;;;;4.10;3.60;;;;;;;10.35;100.00;96945.69;5079378;28;20706;-72
2022/11/16 07:52:30;;;;;;;4.13;2.80;;;;;;;10.39;100.00;96936.56;5077864;28;20258;-72
2022/11/16 07:54:57;;;;;;;4.50;3.00;;;;;;;10.45;100.00;96954.50;5079492;28;20298;-72
2022/11/16 07:57:24;;;;;;;2.20;2.00;;;;;;;10.43;100.00;96951.13;5079670;28;20274;-74
2022/11/16 07:59:52;;;;;;;2.27;2.03;;;;;;;10.54;100.00;96956.31;5080844;28;20533;-72
2022/11/16 08:02:18;;;;;;;1.83;1.50;;;;;;;10.62;100.00;96953.84;5080641;28;20283;-70
2022/11/16 08:04:45;;;;;;;2.73;1.70;;;;;;;10.68;100.00;96950.66;5080477;28;20259;-71
2022/11/16 08:07:13;;;;;;;2.50;1.67;;;;;;;10.77;100.00;96950.69;5078812;28;20215;-71
2022/11/16 08:09:39;;;;;;;1.50;1.40;;;;;;;10.85;100.00;96953.50;5080332;28;20220;-72
2022/11/16 08:12:06;;;;;;;2.00;1.50;;;;;;;10.82;100.00;96952.94;5080313;28;20258;-70
2022/11/16 08:14:33;;;;;;;1.60;1.40;;;;;;;10.84;100.00;96961.56;5080354;28;20675;-70
2022/11/16 08:17:02;;;;;;;1.97;1.40;;;;;;;10.85;100.00;96966.72;5080280;28;20265;-70
2022/11/16 08:19:29;;;;;;;2.00;1.73;;;;;;;10.88;100.00;96968.25;5080262;28;20262;-70
2022/11/16 08:21:55;;;;;;;3.00;1.60;;;;;;;10.89;100.00;96964.63;5080421;28;20255;-70
2022/11/16 08:24:22;;;;;;;3.87;1.73;;;;;;;10.96;100.00;96960.47;5080282;28;20256;-71
2022/11/16 08:26:49;;;;;;;1.93;1.60;;;;;;;11.02;100.00;96965.22;5080680;28;20254;-71
2022/11/16 08:29:16;;;;;;;3.20;1.70;;;;;;;11.09;100.00;96955.75;5080102;28;20609;-71
2022/11/16 08:31:44;;;;;;;2.50;1.60;;;;;;;11.17;100.00;96961.19;5080221;28;20247;-73
2022/11/16 08:34:12;;;;;;;3.10;1.40;;;;;;;11.26;100.00;96958.53;5077033;28;20254;-70
2022/11/16 08:36:39;;;;;;;1.73;1.60;;;;;;;11.35;100.00;96960.38;5077187;28;20303;-70
2022/11/16 08:39:05;;;;;;;1.97;1.30;;;;;;;11.43;100.00;96964.97;5078937;28;20253;-70
2022/11/16 08:41:34;;;;;;;2.97;1.50;;;;;;;11.45;100.00;96952.44;5078920;28;20263;-70
2022/11/16 08:44:01;;;;;;;3.73;1.27;;;;;;;11.49;100.00;96948.53;5076278;28;20337;-70
2022/11/16 08:46:28;;;;;;;1.87;1.17;;;;;;;11.52;100.00;96954.38;5078433;28;20249;-70
2022/11/16 08:48:55;;;;;;;2.20;1.30;;;;;;;11.57;100.00;96957.41;5078716;28;20274;-70
2022/11/16 08:51:24;;;;;;;1.30;1.20;;;;;;;11.57;100.00;96965.34;5077853;28;20218;-70
2022/11/16 08:53:55;;;;;;;2.57;1.57;;;;;;;11.59;100.00;96965.25;5078570;28;20581;-70
2022/11/16 08:56:22;;;;;;;2.13;1.20;;;;;;;11.54;100.00;96973.59;5078484;28;20720;-71
2022/11/16 08:58:52;;;;;;;2.20;1.50;;;;;;;11.50;100.00;96976.66;5076233;28;20254;-70
2022/11/16 09:01:21;;;;;;;1.47;1.23;;;;;;;11.47;100.00;96976.94;5078515;28;20251;-70
2022/11/16 09:03:48;;;;;;;1.43;1.00;;;;;;;11.47;100.00;96977.78;5078343;28;20255;-71
2022/11/16 09:06:15;;;;;;;2.30;1.30;;;;;;;11.53;100.00;96976.38;5077988;28;20218;-70
2022/11/16 09:08:44;;;;;;;2.17;1.10;;;;;;;11.50;100.00;96979.31;5078096;28;20660;-71
2022/11/16 09:11:14;;;;;;;1.93;1.27;;;;;;;11.57;100.00;96988.34;5078691;28;20219;-71
2022/11/16 09:13:41;;;;;;;1.77;1.20;;;;;;;11.58;100.00;96984.72;5077302;28;20273;-72
2022/11/16 09:16:08;;;;;;;1.23;1.10;;;;;;;11.53;100.00;96981.66;5078440;28;20261;-71
2022/11/16 09:18:35;;;;;;;2.50;1.13;;;;;;;11.46;100.00;96985.84;5078514;28;20261;-71
2022/11/16 09:21:02;;;;;;;1.80;1.17;;;;;;;11.39;100.00;96982.94;5077551;28;20263;-71
2022/11/16 09:23:28;;;;;;;2.00;1.00;;;;;;;11.32;100.00;96986.28;5078199;28;20254;-71
2022/11/16 09:26:01;;;;;;;1.83;1.13;;;;;;;11.26;100.00;96978.88;5076533;28;20254;-71
2022/11/16 09:28:27;;;;;;;1.90;1.10;;;;;;;11.23;100.00;96973.84;5077355;28;20297;-70
2022/11/16 09:30:54;;;;;;;2.23;1.60;;;;;;;11.18;100.00;96978.75;5078202;28;20300;-70
2022/11/16 09:33:20;;;;;;;1.20;0.80;;;;;;;11.15;100.00;96984.28;5077991;28;20261;-70
2022/11/16 09:35:47;;;;;;;1.80;1.13;;;;;;;11.10;100.00;96994.44;5077220;28;20259;-70
2022/11/16 09:38:14;;;;;;;1.40;1.00;;;;;;;11.08;100.00;96996.41;5077962;28;20636;-70
2022/11/16 09:40:44;;;;;;;1.80;1.20;;;;;;;11.09;100.00;96992.78;5078901;28;20258;-69
2022/11/16 09:43:24;;;;;;;2.13;0.97;;;;;;;11.11;100.00;96988.19;5077304;28;20638;-70
2022/11/16 09:45:58;;;;;;;2.37;1.00;;;;;;;11.08;100.00;96991.94;5077190;28;20250;-70
2022/11/16 09:48:25;;;;;;;1.60;1.07;;;;;;;11.06;100.00;96995.72;5078321;28;20620;-70
2022/11/16 09:50:56;;;;;;;2.47;1.10;;;;;;;11.11;100.00;96990.81;5076815;28;20218;-70
2022/11/16 09:53:35;;;;;;;1.73;1.10;;;;;;;11.06;100.00;96999.16;5078648;28;20276;-70
2022/11/16 09:56:04;;;;;;;2.83;1.30;;;;;;;11.01;100.00;97000.56;5078472;28;20280;-71
2022/11/16 09:58:38;;;;;;;3.50;1.10;;;;;;;11.03;100.00;96990.69;5078472;28;20389;-69
2022/11/16 10:01:15;;;;;;;1.83;1.00;;;;;;;11.01;100.00;96992.63;5078257;28;20300;-69
2022/11/16 10:03:47;;;;;;;1.77;0.80;;;;;;;11.19;100.00;96989.16;5077484;28;20298;-69
2022/11/16 10:06:21;;;;;;;1.63;1.00;;;;;;;11.37;100.00;96986.69;5078342;28;20221;-70
2022/11/16 10:08:50;;;;;;;1.93;1.00;;;;;;;11.42;100.00;96979.16;5078176;28;20251;-70
2022/11/16 10:11:40;;;;;;;2.03;1.00;;;;;;;11.56;100.00;96976.09;5078219;28;20310;-69
2022/11/16 10:14:34;;;;;;;1.40;0.90;;;;;;;11.59;100.00;96966.09;5078200;28;20218;-70
2022/11/16 10:17:07;;;;;;;1.30;1.00;;;;;;;11.50;100.00;96971.38;5036600;28;20219;-69
2022/11/16 10:19:44;;;;;;;1.97;0.97;;;;;;;11.60;100.00;96985.44;5078096;28;20251;-69
2022/11/16 10:22:26;;;;;;;1.37;1.00;;;;;;;11.99;100.00;96985.28;5078112;28;20223;-69
2022/11/16 10:24:57;;;;;;;2.50;0.90;;;;;;;12.47;100.00;96964.78;5078058;28;21911;-69
2022/11/16 10:27:44;;;;;;;1.90;0.83;;;;;;;12.79;100.00;96953.75;5077883;28;20258;-69
2022/11/16 10:30:16;;;;;;;1.07;0.90;;;;;;;12.95;100.00;96946.84;5077719;28;20317;-69
2022/11/16 10:32:48;;;;;;;1.37;0.90;;;;;;;12.95;100.00;96935.38;5077909;28;20253;-69
2022/11/16 10:35:24;;;;;;;1.20;1.10;;;;;;;13.02;100.00;96939.94;5077918;28;20292;-69
2022/11/16 10:37:51;;;;;;;1.00;0.80;;;;;;;13.05;100.00;96928.22;5077664;28;20255;-69
2022/11/16 10:40:25;;;;;;;1.93;1.20;;;;;;;13.07;100.00;96926.25;5077661;28;20249;-69
2022/11/16 10:43:00;;;;;;;2.40;0.97;;;;;;;13.13;100.00;96925.63;5075857;28;20254;-69
2022/11/16 10:45:34;;;;;;;3.33;1.10;;;;;;;13.16;100.00;96930.66;5077565;28;20258;-69
2022/11/16 10:48:07;;;;;;;1.83;1.10;;;;;;;13.16;100.00;96926.19;5077293;28;20257;-69
2022/11/16 10:50:39;;;;;;;1.77;1.10;;;;;;;13.24;100.00;96920.09;5077749;28;20662;-69
2022/11/16 10:53:06;;;;;;;2.67;1.20;;;;;;;13.28;100.00;96918.81;5077446;28;20257;-69
2022/11/16 10:55:33;;;;;;;1.03;0.93;;;;;;;13.20;100.00;96924.06;5077451;28;20548;-69
2022/11/16 10:58:01;;;;;;;3.33;1.27;;;;;;;13.05;100.00;96909.63;5077477;28;20259;-69
2022/11/16 11:00:46;;;;;;;2.40;1.20;;;;;;;12.89;100.00;96912.09;5077231;28;20301;-69
2022/11/16 11:03:15;;;;;;;1.17;0.90;;;;;;;12.80;100.00;96923.59;5077329;28;20268;-69
2022/11/16 11:05:52;;;;;;;2.03;1.00;;;;;;;12.68;100.00;96919.47;5077266;28;20318;-69
2022/11/16 11:08:29;;;;;;;2.17;0.90;;;;;;;12.51;100.00;96914.97;5075299;28;20258;-69
2022/11/16 11:12:36;;;;;;;3.93;2.70;;;;;;;12.38;100.00;96914.47;5077223;28;20226;-69
2022/11/16 11:14:04;;;;;;;1.80;1.60;;;;;;;12.31;100.00;96918.69;5077057;28;20524;-66
2022/11/16 11:16:32;;;;;;;2.00;1.30;;;;;;;12.41;100.00;96898.28;5077137;28;20256;-67
2022/11/16 11:19:17;;;;;;;2.33;1.07;;;;;;;12.50;100.00;96887.66;5077080;28;20215;-67
2022/11/16 11:21:44;;;;;;;3.70;1.10;;;;;;;12.58;100.00;96884.22;5077096;28;20277;-67
2022/11/16 11:24:16;;;;;;;2.00;1.07;;;;;;;12.65;100.00;96882.69;5077017;28;20297;-67
2022/11/16 11:26:43;;;;;;;1.17;1.00;;;;;;;12.72;100.00;96889.88;5077022;28;20250;-67
2022/11/16 11:29:22;;;;;;;1.47;1.07;;;;;;;12.61;100.00;96892.75;5077155;28;20273;-67
2022/11/16 11:31:53;;;;;;;1.77;1.10;;;;;;;12.49;100.00;96899.22;5076890;28;20586;-66
2022/11/16 11:34:23;;;;;;;3.00;1.37;;;;;;;12.42;100.00;96905.25;5075241;28;20265;-66
2022/11/16 11:36:54;;;;;;;2.67;1.43;;;;;;;12.28;100.00;96900.44;5076700;28;20254;-67
2022/11/16 11:39:32;;;;;;;2.60;1.10;;;;;;;12.18;100.00;96894.34;5076715;28;20252;-67
2022/11/16 11:42:23;;;;;;;2.23;1.23;;;;;;;12.06;100.00;96903.44;5076775;28;20251;-67
2022/11/16 11:44:56;;;;;;;1.20;1.03;;;;;;;12.02;100.00;96905.56;5056751;28;20261;-67
2022/11/16 11:47:43;;;;;;;3.60;1.20;;;;;;;11.95;100.00;96908.91;5056709;28;20218;-68
2022/11/16 11:50:16;;;;;;;4.00;1.10;;;;;;;11.91;100.00;96904.88;5056553;28;20296;-67
2022/11/16 11:52:59;;;;;;;2.23;0.90;;;;;;;11.88;100.00;96913.13;5056652;28;20504;-67
2022/11/16 11:55:26;;;;;;;1.30;1.20;;;;;;;11.87;100.00;96914.09;5056599;28;20254;-67
2022/11/16 11:57:54;;;;;;;1.63;1.10;;;;;;;11.92;100.00;96899.44;5056669;28;20567;-67
2022/11/16 12:00:22;;;;;;;1.40;1.10;;;;;;;12.00;100.00;96901.38;5054946;28;20259;-67
2022/11/16 12:03:20;;;;;;;1.50;0.90;;;;;;;12.17;100.00;96900.63;5056655;28;20233;-67
2022/11/16 12:06:03;;;;;;;1.80;1.03;;;;;;;12.35;100.00;96898.88;5056582;28;20292;-67
2022/11/16 12:08:48;;;;;;;1.97;0.97;;;;;;;12.51;100.00;96891.97;5056453;28;20301;-67
2022/11/16 12:11:26;;;;;;;1.40;0.90;;;;;;;12.78;100.00;96852.16;5056525;28;20255;-67
2022/11/16 12:14:15;;;;;;;1.70;0.70;;;;;;;13.08;100.00;96843.03;5056516;28;20265;-67
2022/11/16 12:16:48;;;;;;;1.67;0.73;;;;;;;13.26;100.00;96830.59;5056360;28;20259;-68
2022/11/16 12:19:55;;;;;;;1.70;0.60;;;;;;;13.38;95.02;96789.56;5056331;28;20542;-68